Time;durP1;ratioP1;P1;durP2;ratioP2;P2;SDS_P1;SDS_P2;PMS_P1;PMS_P2;Temp;Humidity;BMP_temperature;BMP_pressure;BME280_temperature;BME280_humidity;BME280_pressure;Samples;Min_cycle;Max_cycle;Signal;HPM_P1;HPM_P2
2022/04/26 03:38:35;;;;;;;16.75;9.75;;;7.70;99.90;;;;;;4893283;29;20067;-71
2022/04/26 03:41:01;;;;;;;13.10;8.73;;;7.80;99.90;;;;;;4893992;29;20092;-70
2022/04/26 03:43:27;;;;;;;17.17;10.47;;;7.70;99.90;;;;;;4892586;29;20036;-70
2022/04/26 03:45:53;;;;;;;16.52;9.70;;;7.80;99.90;;;;;;4904177;29;20622;-70
2022/04/26 03:48:19;;;;;;;16.87;10.17;;;7.80;99.90;;;;;;4895666;29;20560;-70
2022/04/26 03:50:45;;;;;;;15.20;9.67;;;7.80;99.90;;;;;;4889192;29;20024;-71
2022/04/26 03:53:11;;;;;;;17.45;10.57;;;7.90;99.90;;;;;;4898827;29;20366;-70
2022/04/26 03:55:38;;;;;;;15.67;9.47;;;7.90;99.90;;;;;;4890188;29;20024;-71
2022/04/26 03:58:04;;;;;;;15.43;9.73;;;7.90;99.90;;;;;;4888896;29;20024;-71
2022/04/26 04:00:29;;;;;;;14.47;9.07;;;7.90;99.90;;;;;;4888550;29;20055;-70
2022/04/26 04:02:55;;;;;;;17.47;9.77;;;7.90;99.90;;;;;;4901569;29;20055;-71
2022/04/26 04:05:24;;;;;;;15.63;9.13;;;7.90;99.90;;;;;;4889817;29;20040;-70
2022/04/26 04:07:49;;;;;;;15.75;9.15;;;8.00;99.90;;;;;;4884748;29;20032;-70
2022/04/26 04:10:15;;;;;;;16.83;9.90;;;7.90;99.90;;;;;;4890392;29;20040;-71
2022/04/26 04:12:41;;;;;;;13.20;8.63;;;8.00;99.90;;;;;;4891570;29;20033;-70
2022/04/26 04:15:07;;;;;;;14.70;9.17;;;8.10;99.90;;;;;;4891245;29;20023;-70
2022/04/26 04:17:33;;;;;;;16.63;9.73;;;8.10;99.90;;;;;;4889577;29;20035;-71
2022/04/26 04:19:59;;;;;;;17.00;9.33;;;8.20;99.90;;;;;;4888582;29;20037;-71
2022/04/26 04:22:25;;;;;;;14.27;9.03;;;8.20;99.90;;;;;;4890730;29;20088;-71
2022/04/26 04:24:51;;;;;;;14.27;9.15;;;8.30;99.90;;;;;;4886664;29;20032;-71
2022/04/26 04:27:16;;;;;;;13.57;9.10;;;8.30;99.90;;;;;;4902648;29;20667;-71
2022/04/26 04:29:43;;;;;;;13.10;8.60;;;8.40;99.90;;;;;;4888456;29;20017;-71
2022/04/26 04:32:10;;;;;;;13.55;9.05;;;8.40;99.90;;;;;;4894205;29;20047;-71
2022/04/26 04:34:35;;;;;;;;;;;8.40;99.90;;;;;;4896405;29;20552;-71
2022/04/26 04:37:01;;;;;;;14.35;8.98;;;8.50;99.90;;;;;;4885596;29;20659;-71
2022/04/26 04:39:27;;;;;;;12.87;8.20;;;8.50;99.90;;;;;;4891778;29;20034;-71
2022/04/26 04:41:53;;;;;;;16.08;9.90;;;8.50;99.90;;;;;;4884857;29;20091;-72
2022/04/26 04:44:19;;;;;;;13.30;8.57;;;8.60;99.90;;;;;;4888501;29;20032;-71
2022/04/26 04:46:45;;;;;;;12.48;8.48;;;8.80;99.90;;;;;;4895997;29;20028;-71
2022/04/26 04:49:12;;;;;;;12.60;8.63;;;9.10;99.90;;;;;;4889513;29;20044;-71
2022/04/26 04:51:37;;;;;;;15.02;9.00;;;9.60;99.90;;;;;;4889139;29;20032;-71
2022/04/26 04:54:04;;;;;;;12.83;7.93;;;10.40;99.90;;;;;;4894620;29;20028;-72
2022/04/26 04:56:33;;;;;;;12.55;8.07;;;11.90;99.90;;;;;;4891345;29;20024;-72
2022/04/26 04:58:59;;;;;;;11.13;8.10;;;13.40;99.00;;;;;;4888038;29;20024;-71
2022/04/26 05:01:25;;;;;;;11.43;7.45;;;14.30;96.40;;;;;;4893208;29;20504;-72
2022/04/26 05:03:52;;;;;;;15.70;7.90;;;14.30;95.10;;;;;;4886463;29;20102;-72
2022/04/26 05:06:18;;;;;;;14.63;8.27;;;14.00;94.90;;;;;;4887038;29;20052;-72
2022/04/26 05:08:45;;;;;;;10.98;7.88;;;13.50;95.50;;;;;;4890291;29;20024;-72
2022/04/26 05:11:11;;;;;;;14.85;8.32;;;13.10;96.00;;;;;;4892301;29;20036;-71
2022/04/26 05:13:37;;;;;;;13.73;8.65;;;12.80;96.50;;;;;;4891175;29;20036;-71
2022/04/26 05:16:03;;;;;;;13.88;8.80;;;12.70;96.80;;;;;;4890002;29;20043;-72
2022/04/26 05:18:28;;;;;;;11.90;8.15;;;12.60;97.00;;;;;;4891797;29;20029;-72
2022/04/26 05:20:54;;;;;;;10.98;7.63;;;12.50;97.10;;;;;;4888286;29;20024;-72
2022/04/26 05:26:05;;;;;;;10.27;7.85;;;12.20;98.10;;;;;;4887525;29;20400;-72
2022/04/26 05:28:32;;;;;;;12.23;8.25;;;12.10;98.60;;;;;;4886473;29;20069;-72
2022/04/26 05:30:58;;;;;;;11.57;8.35;;;12.10;98.70;;;;;;4889379;29;20683;-72
2022/04/26 05:33:26;;;;;;;11.73;7.93;;;12.10;98.80;;;;;;4890173;29;20029;-72
2022/04/26 05:35:51;;;;;;;12.02;8.98;;;12.10;99.10;;;;;;4889348;29;20035;-72
2022/04/26 05:38:17;;;;;;;11.98;7.93;;;12.40;98.90;;;;;;4896406;29;20020;-72
2022/04/26 05:40:43;;;;;;;12.00;8.63;;;12.50;98.60;;;;;;4895603;29;20037;-72
2022/04/26 05:43:10;;;;;;;11.35;8.20;;;12.60;98.50;;;;;;4891090;29;20273;-72
2022/04/26 05:45:35;;;;;;;10.45;7.97;;;12.60;98.30;;;;;;4885556;29;20875;-72
2022/04/26 05:48:01;;;;;;;11.20;8.27;;;12.50;98.20;;;;;;4893324;29;20052;-72
2022/04/26 05:50:27;;;;;;;12.95;8.20;;;12.50;98.30;;;;;;4887008;29;20434;-72
2022/04/26 05:52:53;;;;;;;12.32;9.07;;;12.30;98.60;;;;;;4888713;29;20036;-72
2022/04/26 05:55:19;;;;;;;12.00;8.77;;;12.30;98.80;;;;;;4885020;29;20500;-72
2022/04/26 05:57:44;;;;;;;11.68;8.13;;;12.30;99.00;;;;;;4890591;29;20028;-71
2022/04/26 06:00:12;;;;;;;12.87;8.73;;;12.30;98.90;;;;;;4887728;29;20052;-71
2022/04/26 06:02:40;;;;;;;13.55;9.15;;;12.30;98.80;;;;;;4888575;29;20024;-72
2022/04/26 06:05:06;;;;;;;12.07;8.63;;;12.30;98.60;;;;;;4897386;29;20028;-71
2022/04/26 06:07:34;;;;;;;12.18;8.32;;;12.30;98.60;;;;;;4883839;29;20032;-72
2022/04/26 06:10:01;;;;;;;13.57;8.20;;;12.20;98.70;;;;;;4892529;29;20438;-72
2022/04/26 06:12:27;;;;;;;15.90;9.00;;;12.10;98.90;;;;;;4886241;29;20709;-72
2022/04/26 06:14:54;;;;;;;13.23;8.93;;;12.00;99.30;;;;;;4892069;29;20035;-72
2022/04/26 06:17:20;;;;;;;13.35;8.38;;;11.80;99.50;;;;;;4893345;29;20533;-72
2022/04/26 06:19:47;;;;;;;12.73;8.07;;;11.80;99.90;;;;;;4888939;29;20028;-72
2022/04/26 06:22:12;;;;;;;14.43;8.88;;;11.70;99.90;;;;;;4889227;29;20275;-72
2022/04/26 06:24:38;;;;;;;12.97;8.70;;;11.60;99.90;;;;;;4888587;29;20944;-72
2022/04/26 06:27:04;;;;;;;13.90;8.80;;;11.50;99.90;;;;;;4892741;29;20016;-71
2022/04/26 06:29:29;;;;;;;14.10;9.60;;;11.50;99.90;;;;;;4892513;29;20039;-72
2022/04/26 06:31:56;;;;;;;12.40;8.93;;;11.50;99.90;;;;;;4891177;29;20032;-72
2022/04/26 06:34:22;;;;;;;;;;;11.60;99.90;;;;;;4887268;29;20163;-72
2022/04/26 06:36:48;;;;;;;13.52;9.40;;;11.60;99.90;;;;;;4891211;29;20014;-72
2022/04/26 06:39:16;;;;;;;;;;;11.60;99.90;;;;;;4914370;29;20200;-72
2022/04/26 06:41:42;;;;;;;12.15;7.82;;;11.60;99.90;;;;;;4882807;29;20005;-71
2022/04/26 06:44:08;;;;;;;11.55;8.32;;;11.60;99.90;;;;;;4907651;29;20810;-72
2022/04/26 06:46:38;;;;;;;14.57;8.60;;;11.60;99.90;;;;;;4882988;29;20044;-71
2022/04/26 06:49:05;;;;;;;12.85;8.40;;;11.70;99.90;;;;;;4893016;29;20045;-71
2022/04/26 06:51:33;;;;;;;;;;;11.70;99.90;;;;;;4882678;29;20076;-72
2022/04/26 06:53:59;;;;;;;13.50;8.82;;;11.80;99.90;;;;;;4888279;29;19955;-72
2022/04/26 06:56:24;;;;;;;11.05;8.05;;;11.80;99.90;;;;;;4887775;29;20064;-72
2022/04/26 06:58:50;;;;;;;12.40;8.75;;;11.90;99.90;;;;;;4892997;29;20025;-73
2022/04/26 07:01:16;;;;;;;12.60;8.10;;;11.90;99.90;;;;;;4893898;29;20036;-72
2022/04/26 07:03:41;;;;;;;13.67;8.60;;;11.90;99.90;;;;;;4885619;29;20021;-72
2022/04/26 07:06:07;;;;;;;12.23;7.90;;;12.00;99.90;;;;;;4883990;29;20443;-72
2022/04/26 07:08:33;;;;;;;13.07;8.70;;;11.90;99.70;;;;;;4903481;29;20427;-72
2022/04/26 07:10:59;;;;;;;12.83;8.10;;;11.90;99.70;;;;;;4887689;29;20058;-72
2022/04/26 07:13:25;;;;;;;;;;;11.90;99.80;;;;;;4888863;29;20028;-72
2022/04/26 07:15:51;;;;;;;11.30;7.57;;;12.00;99.90;;;;;;4892965;29;19911;-72
2022/04/26 07:18:17;;;;;;;;;;;12.00;99.90;;;;;;4896194;29;20025;-72
2022/04/26 07:20:46;;;;;;;11.43;7.63;;;12.00;99.90;;;;;;4897196;29;19914;-72
2022/04/26 07:23:13;;;;;;;13.20;8.93;;;12.10;99.90;;;;;;4888213;29;20033;-72
2022/04/26 07:25:39;;;;;;;15.75;9.13;;;12.10;99.90;;;;;;4890490;29;20534;-71
2022/04/26 07:28:06;;;;;;;12.40;8.93;;;12.10;99.90;;;;;;4894475;29;20401;-72
2022/04/26 07:30:35;;;;;;;14.88;9.73;;;12.00;99.80;;;;;;4894358;29;20623;-72
2022/04/26 07:35:46;;;;;;;12.60;8.60;;;12.00;99.90;;;;;;4888900;29;20123;-72
2022/04/26 07:38:11;;;;;;;11.87;8.30;;;12.00;99.90;;;;;;4889159;29;20426;-72
2022/04/26 07:40:37;;;;;;;14.33;8.53;;;11.90;99.90;;;;;;4886255;29;20020;-72
2022/04/26 07:43:04;;;;;;;14.87;9.33;;;11.90;99.90;;;;;;4890745;29;20036;-71
2022/04/26 07:45:31;;;;;;;13.30;8.85;;;11.60;99.90;;;;;;4884301;29;20042;-72
2022/04/26 07:47:58;;;;;;;16.00;9.73;;;11.30;99.90;;;;;;4891294;29;20055;-72
2022/04/26 07:50:25;;;;;;;14.00;9.48;;;11.20;99.90;;;;;;4884967;29;20035;-72
2022/04/26 07:52:52;;;;;;;13.80;9.15;;;11.20;99.90;;;;;;4892232;29;20090;-71
2022/04/26 07:55:19;;;;;;;;;;;11.20;99.90;;;;;;4893730;29;20035;-71
2022/04/26 07:57:45;;;;;;;13.10;8.75;;;11.10;99.90;;;;;;4883860;29;19918;-72
2022/04/26 08:00:11;;;;;;;15.83;10.10;;;11.10;99.90;;;;;;4892643;29;20044;-72
2022/04/26 08:02:37;;;;;;;11.60;8.10;;;11.00;99.90;;;;;;4886733;29;20028;-72
2022/04/26 08:05:02;;;;;;;12.87;9.00;;;11.10;99.90;;;;;;4891681;29;20319;-71
2022/04/26 08:07:29;;;;;;;13.68;8.80;;;11.10;99.90;;;;;;4883226;29;20506;-71
2022/04/26 08:09:58;;;;;;;13.50;8.68;;;11.20;99.90;;;;;;4887442;29;20039;-71
2022/04/26 08:12:23;;;;;;;12.68;8.98;;;11.30;99.90;;;;;;4888138;29;20039;-71
2022/04/26 08:14:49;;;;;;;17.80;9.67;;;11.40;99.90;;;;;;4891714;29;20020;-71
2022/04/26 08:17:15;;;;;;;12.73;7.83;;;11.40;99.90;;;;;;4892636;29;20269;-71
2022/04/26 08:19:43;;;;;;;16.60;9.38;;;11.40;99.90;;;;;;4889893;29;20028;-71
2022/04/26 08:22:09;;;;;;;16.15;8.25;;;11.30;99.90;;;;;;4892762;29;20036;-71
2022/04/26 08:27:23;;;;;;;15.80;10.27;;;11.60;99.90;;;;;;4888389;29;20043;-71
2022/04/26 08:29:49;;;;;;;14.52;9.57;;;11.60;99.90;;;;;;4885674;29;20103;-72
2022/04/26 08:32:15;;;;;;;18.05;10.70;;;11.50;99.90;;;;;;4887995;29;20039;-72
2022/04/26 08:34:42;;;;;;;15.93;9.87;;;11.60;99.90;;;;;;4883907;29;20024;-71
2022/04/26 08:37:11;;;;;;;17.80;10.23;;;11.50;99.90;;;;;;4888415;29;20260;-71
2022/04/26 08:39:37;;;;;;;14.90;10.02;;;11.60;99.90;;;;;;4888234;29;20108;-71
2022/04/26 08:42:04;;;;;;;16.38;9.80;;;11.70;99.90;;;;;;4889922;29;20344;-71
2022/04/26 08:44:31;;;;;;;18.35;9.82;;;11.70;99.90;;;;;;4884649;29;20028;-72
2022/04/26 08:52:27;;;;;;;14.95;10.20;;;11.90;99.90;;;;;;4889238;29;20116;-71
2022/04/26 08:54:54;;;;;;;;;;;11.90;99.90;;;;;;4886320;29;20021;-71
2022/04/26 08:57:20;;;;;;;19.02;10.18;;;11.90;99.90;;;;;;4887271;29;19915;-71
2022/04/26 08:59:50;;;;;;;14.82;10.65;;;11.90;99.90;;;;;;4881187;29;20565;-71
2022/04/26 09:02:22;;;;;;;18.00;10.90;;;11.90;99.90;;;;;;4896729;29;20039;-71
2022/04/26 09:04:59;;;;;;;18.30;10.45;;;11.60;99.90;;;;;;4907094;29;20092;-71
2022/04/26 09:07:33;;;;;;;16.33;10.95;;;11.60;99.90;;;;;;4890385;29;20029;-71
2022/04/26 09:10:18;;;;;;;21.67;11.00;;;11.50;99.90;;;;;;4886950;29;20064;-71
2022/04/26 09:13:11;;;;;;;16.45;11.00;;;10.90;99.90;;;;;;4884325;29;20029;-71
2022/04/26 09:15:50;;;;;;;18.02;11.05;;;11.60;99.90;;;;;;4885701;29;20087;-71
2022/04/26 09:18:30;;;;;;;17.75;11.07;;;11.60;99.90;;;;;;4886499;29;20025;-78
2022/04/26 09:21:09;;;;;;;16.08;10.52;;;11.70;99.90;;;;;;4903001;29;20028;-71
2022/04/26 09:23:38;;;;;;;17.85;10.02;;;11.70;99.90;;;;;;4891352;29;20163;-71
2022/04/26 09:26:15;;;;;;;24.77;11.60;;;11.50;99.90;;;;;;4905590;29;20793;-71
2022/04/26 09:28:51;;;;;;;18.17;10.40;;;11.60;99.90;;;;;;4888050;29;20106;-71
2022/04/26 09:31:23;;;;;;;17.73;10.98;;;11.80;99.90;;;;;;4885665;29;20046;-71
2022/04/26 09:34:04;;;;;;;14.63;9.90;;;11.80;99.90;;;;;;4885524;29;20520;-71
2022/04/26 09:36:35;;;;;;;16.20;10.57;;;11.80;99.90;;;;;;4887996;29;20434;-71
2022/04/26 09:39:02;;;;;;;14.30;10.13;;;11.90;99.90;;;;;;4891684;29;20143;-72
2022/04/26 09:41:30;;;;;;;16.10;10.40;;;11.90;99.90;;;;;;4886630;29;20099;-71
2022/04/26 09:44:01;;;;;;;16.15;10.75;;;12.00;99.90;;;;;;4889277;29;20020;-71
2022/04/26 09:46:44;;;;;;;15.05;10.10;;;12.10;99.90;;;;;;4892190;29;20100;-71
2022/04/26 09:49:14;;;;;;;19.73;10.15;;;12.20;99.90;;;;;;4900227;29;20489;-71
2022/04/26 09:51:41;;;;;;;19.60;10.82;;;12.30;99.90;;;;;;4886923;29;20029;-71
2022/04/26 09:54:08;;;;;;;14.45;9.60;;;12.30;99.90;;;;;;4891707;29;20036;-72
2022/04/26 09:56:34;;;;;;;16.27;10.90;;;12.30;99.90;;;;;;4895454;29;20028;-72
2022/04/26 09:59:03;;;;;;;16.08;10.80;;;12.30;99.90;;;;;;4892498;29;20079;-71
2022/04/26 10:01:39;;;;;;;16.80;11.32;;;12.20;99.90;;;;;;4891196;29;20036;-71
2022/04/26 10:04:08;;;;;;;15.52;10.40;;;12.30;99.90;;;;;;4892286;29;20037;-71
2022/04/26 10:06:35;;;;;;;17.90;10.60;;;12.40;99.90;;;;;;4885769;29;20047;-71
2022/04/26 10:09:03;;;;;;;15.13;10.77;;;12.50;99.90;;;;;;4886683;29;20032;-72
2022/04/26 10:11:29;;;;;;;17.40;11.15;;;12.50;99.80;;;;;;4889408;29;20115;-71
2022/04/26 10:13:57;;;;;;;17.67;10.70;;;12.60;99.40;;;;;;4881889;29;20021;-71
2022/04/26 10:16:25;;;;;;;17.58;10.60;;;12.70;99.30;;;;;;4887349;29;20085;-71
2022/04/26 10:19:00;;;;;;;14.48;9.73;;;12.70;99.30;;;;;;4890041;29;20603;-71
2022/04/26 10:21:26;;;;;;;18.05;10.52;;;12.70;98.90;;;;;;4891629;29;20036;-71
2022/04/26 10:23:51;;;;;;;15.70;10.32;;;12.60;99.20;;;;;;4887391;29;20020;-71
2022/04/26 10:26:23;;;;;;;18.33;10.43;;;12.70;99.20;;;;;;4909482;29;20387;-71
2022/04/26 10:28:51;;;;;;;14.32;9.77;;;12.80;99.10;;;;;;4882054;29;20032;-72
2022/04/26 10:31:18;;;;;;;13.10;9.13;;;12.80;98.60;;;;;;4899488;29;20036;-71
2022/04/26 10:33:45;;;;;;;15.30;9.85;;;12.90;98.50;;;;;;4892894;29;20542;-72
2022/04/26 10:36:19;;;;;;;14.15;9.85;;;12.90;98.70;;;;;;4898079;29;20395;-71
2022/04/26 10:39:04;;;;;;;16.58;10.00;;;13.00;98.60;;;;;;4891920;29;20030;-71
2022/04/26 10:41:34;;;;;;;12.68;8.77;;;13.10;98.10;;;;;;4890618;29;20095;-71
2022/04/26 10:44:20;;;;;;;16.65;9.57;;;13.10;97.80;;;;;;4892894;29;20072;-71
2022/04/26 10:47:09;;;;;;;13.70;9.52;;;13.10;97.80;;;;;;4882425;29;20020;-71
2022/04/26 10:49:40;;;;;;;16.20;10.25;;;13.10;97.50;;;;;;4889915;29;20170;-71
2022/04/26 10:52:13;;;;;;;15.82;10.93;;;13.10;97.30;;;;;;4891426;29;20147;-71
2022/04/26 10:55:07;;;;;;;17.20;10.57;;;13.00;97.50;;;;;;4888226;29;20024;-71
2022/04/26 10:57:33;;;;;;;15.45;10.77;;;13.20;97.70;;;;;;4904285;29;20047;-71
2022/04/26 11:00:01;;;;;;;17.73;10.80;;;13.40;97.30;;;;;;4889713;29;20123;-71
2022/04/26 11:02:28;;;;;;;17.08;10.93;;;13.40;97.20;;;;;;4887739;29;20264;-72
2022/04/26 11:05:03;;;;;;;16.10;10.82;;;13.40;97.10;;;;;;4887308;29;20567;-71
2022/04/26 11:07:28;;;;;;;17.17;11.13;;;13.50;97.80;;;;;;4887404;29;20024;-71
2022/04/26 11:09:55;;;;;;;16.23;10.82;;;13.60;98.00;;;;;;4884580;29;20960;-71
2022/04/26 11:12:26;;;;;;;17.33;11.23;;;13.60;96.90;;;;;;4894811;29;20072;-71
2022/04/26 11:14:57;;;;;;;17.83;11.35;;;13.50;97.00;;;;;;4891018;29;21818;-71
2022/04/26 11:17:24;;;;;;;18.35;12.27;;;13.50;96.80;;;;;;4891095;29;20032;-71
2022/04/26 11:19:53;;;;;;;16.77;11.77;;;13.80;96.10;;;;;;4891097;29;20483;-71
2022/04/26 11:22:20;;;;;;;16.02;10.27;;;14.20;95.70;;;;;;4907134;29;20025;-71
2022/04/26 11:30:31;;;;;;;14.57;10.80;;;15.50;94.50;;;;;;4888296;29;20084;-71
2022/04/26 11:32:59;;;;;;;14.13;10.15;;;15.70;92.60;;;;;;4890562;29;20207;-71
2022/04/26 11:35:29;;;;;;;13.88;9.95;;;15.80;92.60;;;;;;4893856;29;20486;-72
2022/04/26 11:37:59;;;;;;;14.90;10.23;;;16.00;92.30;;;;;;4885425;29;20052;-71
2022/04/26 11:40:51;;;;;;;16.35;10.75;;;16.00;91.60;;;;;;4893271;29;20651;-71
2022/04/26 11:43:22;;;;;;;14.93;9.63;;;16.40;91.20;;;;;;4887097;29;20040;-72
2022/04/26 11:45:50;;;;;;;15.07;10.20;;;16.90;90.00;;;;;;4888270;29;20037;-72
2022/04/26 11:48:30;;;;;;;12.32;8.80;;;17.40;88.80;;;;;;4889784;29;20407;-71
2022/04/26 11:50:57;;;;;;;13.40;9.00;;;17.70;85.00;;;;;;4887529;29;20032;-71
2022/04/26 11:53:25;;;;;;;10.95;8.35;;;17.40;84.20;;;;;;4908273;29;20466;-72
2022/04/26 11:55:55;;;;;;;9.13;6.53;;;17.30;84.10;;;;;;4894769;29;20466;-71
2022/04/26 11:58:27;;;;;;;9.02;6.15;;;17.50;82.50;;;;;;4886606;29;20056;-71
2022/04/26 12:01:17;;;;;;;8.27;6.25;;;17.50;82.80;;;;;;4885964;29;20032;-72
2022/04/26 12:03:52;;;;;;;8.68;6.40;;;17.00;79.90;;;;;;4889903;29;20138;-72
2022/04/26 12:06:28;;;;;;;7.28;4.85;;;17.10;80.10;;;;;;4891699;29;20047;-71
2022/04/26 12:08:57;;;;;;;6.28;4.60;;;16.30;79.00;;;;;;4887766;29;20039;-71
2022/04/26 12:11:27;;;;;;;5.40;3.70;;;15.70;80.10;;;;;;4896342;29;20044;-71
2022/04/26 12:14:06;;;;;;;7.40;4.90;;;15.40;83.00;;;;;;4887043;29;20031;-72
2022/04/26 12:16:35;;;;;;;5.82;4.07;;;15.70;81.30;;;;;;4889347;29;20111;-71
2022/04/26 12:19:04;;;;;;;5.45;4.72;;;16.10;79.30;;;;;;4886161;29;20016;-71
2022/04/26 12:21:51;;;;;;;8.02;5.00;;;16.20;80.30;;;;;;4891673;29;20030;-71
2022/04/26 12:24:21;;;;;;;5.65;4.40;;;16.10;81.20;;;;;;4889338;29;20538;-72
2022/04/26 12:26:50;;;;;;;6.25;4.28;;;16.00;78.40;;;;;;4884804;29;20044;-72
2022/04/26 12:29:17;;;;;;;6.57;4.15;;;15.80;79.90;;;;;;4892053;29;20021;-71
2022/04/26 12:31:44;;;;;;;4.82;3.78;;;15.60;81.40;;;;;;4885361;29;20024;-71
2022/04/26 12:34:21;;;;;;;6.20;4.00;;;15.80;80.40;;;;;;4894361;29;20051;-71
2022/04/26 12:36:54;;;;;;;7.13;4.90;;;16.10;80.90;;;;;;4889373;29;20769;-71
2022/04/26 12:39:23;;;;;;;7.43;5.13;;;16.10;79.60;;;;;;4891058;29;20044;-72
2022/04/26 12:41:56;;;;;;;7.03;4.72;;;15.70;81.00;;;;;;4887653;29;20064;-71
2022/04/26 12:44:23;;;;;;;8.38;5.00;;;15.50;80.40;;;;;;4893148;29;20534;-71
2022/04/26 12:52:46;;;;;;;5.38;4.00;;;15.90;79.10;;;;;;4887611;29;20043;-71
2022/04/26 12:55:29;;;;;;;7.05;4.97;;;15.80;77.80;;;;;;4892451;29;20355;-71
2022/04/26 12:57:56;;;;;;;4.50;3.40;;;15.50;79.40;;;;;;4888194;29;20048;-71
2022/04/26 13:00:23;;;;;;;6.28;4.43;;;15.60;80.90;;;;;;4887248;29;20084;-71
2022/04/26 13:02:51;;;;;;;6.47;4.43;;;15.70;79.40;;;;;;4885636;29;20024;-71
2022/04/26 13:05:17;;;;;;;6.07;4.55;;;15.70;79.50;;;;;;4889495;29;20025;-71
2022/04/26 13:07:46;;;;;;;;;;;15.80;79.60;;;;;;4903662;29;20062;-71
2022/04/26 13:10:15;;;;;;;5.53;4.28;;;16.00;79.70;;;;;;4887577;29;19915;-71
2022/04/26 13:12:42;;;;;;;6.13;4.28;;;16.00;78.00;;;;;;4889742;29;20075;-72
2022/04/26 13:15:08;;;;;;;6.97;4.88;;;16.20;78.30;;;;;;4917007;29;20025;-71
2022/04/26 13:17:37;;;;;;;7.70;4.00;;;16.10;78.10;;;;;;4896943;29;20111;-71
2022/04/26 13:20:05;;;;;;;8.57;4.50;;;16.20;78.00;;;;;;4887302;29;20048;-71
2022/04/26 13:22:33;;;;;;;8.80;4.82;;;15.90;78.30;;;;;;4889004;29;20056;-71
2022/04/26 13:25:00;;;;;;;9.38;5.00;;;15.60;79.30;;;;;;4881960;29;20051;-71
2022/04/26 13:27:26;;;;;;;7.25;5.32;;;15.60;80.20;;;;;;4905385;29;20032;-71
2022/04/26 13:29:52;;;;;;;6.75;5.00;;;15.30;81.40;;;;;;4885906;29;20039;-72
2022/04/26 13:32:18;;;;;;;6.10;4.80;;;15.40;81.40;;;;;;4888395;29;20028;-71
2022/04/26 13:34:45;;;;;;;8.43;5.03;;;15.40;81.50;;;;;;4883503;29;20075;-71
2022/04/26 13:37:11;;;;;;;6.28;4.60;;;15.40;81.70;;;;;;4892979;29;21446;-71
2022/04/26 13:39:43;;;;;;;5.93;4.63;;;15.20;81.90;;;;;;4893997;29;20028;-71
2022/04/26 13:42:10;;;;;;;10.43;4.90;;;15.30;83.10;;;;;;4896028;29;20127;-71
2022/04/26 13:44:35;;;;;;;6.03;4.30;;;15.30;82.60;;;;;;4892157;29;20021;-71
2022/04/26 13:47:04;;;;;;;6.97;5.47;;;15.50;81.70;;;;;;4882681;29;20035;-71
2022/04/26 13:49:34;;;;;;;7.95;5.22;;;15.50;81.30;;;;;;4888377;29;20051;-71
2022/04/26 13:52:02;;;;;;;9.80;4.32;;;15.50;81.30;;;;;;4887850;29;20035;-71
2022/04/26 13:54:29;;;;;;;5.78;4.18;;;15.70;80.70;;;;;;4892188;29;20056;-71
2022/04/26 13:56:56;;;;;;;6.72;4.53;;;15.70;80.80;;;;;;4890536;29;20024;-72
2022/04/26 13:59:25;;;;;;;;;;;15.80;79.20;;;;;;4885312;29;20025;-71
2022/04/26 14:01:52;;;;;;;6.22;4.30;;;15.70;79.40;;;;;;4881084;29;19958;-71
2022/04/26 14:04:19;;;;;;;7.68;4.53;;;15.40;81.30;;;;;;4885426;29;20474;-72
2022/04/26 14:06:44;;;;;;;;;;;15.60;82.50;;;;;;4898031;29;20039;-71
2022/04/26 14:09:10;;;;;;;7.07;4.53;;;15.80;81.00;;;;;;4892751;29;19910;-71
2022/04/26 14:11:36;;;;;;;8.02;5.18;;;15.70;81.70;;;;;;4889164;29;20055;-71
2022/04/26 14:22:16;;;;;;;6.38;4.80;;;15.40;82.00;;;;;;4890847;29;20485;-71
2022/04/26 14:24:43;;;;;;;7.47;4.93;;;15.60;82.50;;;;;;4893912;29;20051;-71
2022/04/26 14:27:10;;;;;;;6.35;4.35;;;15.60;82.40;;;;;;4918768;29;20706;-71
2022/04/26 14:29:36;;;;;;;8.45;4.93;;;15.70;81.50;;;;;;4888421;29;20119;-71
2022/04/26 14:32:02;;;;;;;6.95;5.43;;;15.70;81.30;;;;;;4883211;29;20036;-72
2022/04/26 14:34:29;;;;;;;6.95;5.18;;;15.60;82.50;;;;;;4890887;29;20680;-71
2022/04/26 14:36:55;;;;;;;;;;;15.50;84.30;;;;;;4887013;29;20487;-71
2022/04/26 14:39:21;;;;;;;7.95;5.10;;;15.60;82.60;;;;;;4904696;29;19919;-71
2022/04/26 14:41:46;;;;;;;8.45;6.13;;;15.70;83.70;;;;;;4889422;29;20028;-71
2022/04/26 14:44:13;;;;;;;10.30;6.07;;;15.70;83.80;;;;;;4903077;29;20739;-71
2022/04/26 14:46:39;;;;;;;8.40;6.03;;;15.80;84.30;;;;;;4890643;29;20028;-72
2022/04/26 14:49:06;;;;;;;7.45;6.35;;;15.80;84.70;;;;;;4890103;29;21118;-71
2022/04/26 14:51:32;;;;;;;10.05;5.90;;;15.80;84.60;;;;;;4897764;29;20696;-71
2022/04/26 14:53:58;;;;;;;7.60;5.40;;;16.00;84.60;;;;;;4889211;29;20621;-71
2022/04/26 14:56:24;;;;;;;7.90;5.97;;;15.90;84.70;;;;;;4894373;29;20035;-71
2022/04/26 14:58:50;;;;;;;7.93;5.53;;;16.00;85.10;;;;;;4891071;29;20678;-71
2022/04/26 15:01:16;;;;;;;8.77;5.88;;;16.00;84.70;;;;;;4895713;29;20272;-72
2022/04/26 15:03:44;;;;;;;7.85;5.30;;;16.10;84.40;;;;;;4893312;29;20782;-72
2022/04/26 15:06:10;;;;;;;11.05;6.50;;;15.90;84.20;;;;;;4894301;29;20025;-72
2022/04/26 15:11:20;;;;;;;9.50;5.68;;;15.40;85.80;;;;;;4893108;29;20036;-71
2022/04/26 15:16:39;;;;;;;10.88;6.20;;;15.40;87.20;;;;;;4887430;29;20100;-70
2022/04/26 15:19:09;;;;;;;8.80;5.88;;;15.40;86.10;;;;;;4885611;29;20016;-71
2022/04/26 15:21:36;;;;;;;8.63;6.05;;;15.40;86.60;;;;;;4893192;29;20105;-71
2022/04/26 15:24:03;;;;;;;8.52;5.82;;;15.40;87.60;;;;;;4901998;29;20040;-71
2022/04/26 15:26:29;;;;;;;6.97;5.70;;;15.30;87.20;;;;;;4897613;29;20032;-71
2022/04/26 15:28:55;;;;;;;10.43;5.75;;;15.40;87.40;;;;;;4888877;29;20028;-71
2022/04/26 15:31:21;;;;;;;9.05;6.20;;;15.40;88.10;;;;;;4905969;29;20036;-71
2022/04/26 15:33:48;;;;;;;6.88;5.45;;;15.30;88.50;;;;;;4891139;29;20031;-71
2022/04/26 15:36:16;;;;;;;9.45;6.43;;;15.30;88.20;;;;;;4891459;29;20024;-71
2022/04/26 15:38:43;;;;;;;10.18;6.78;;;15.30;88.50;;;;;;4891024;29;20028;-71
2022/04/26 15:41:09;;;;;;;9.48;5.88;;;15.30;87.80;;;;;;4887977;29;20313;-71
2022/04/26 15:43:36;;;;;;;9.02;6.68;;;15.40;88.10;;;;;;4893512;29;20061;-71
2022/04/26 15:46:03;;;;;;;8.23;5.93;;;15.30;87.80;;;;;;4892041;29;20040;-71
2022/04/26 15:48:29;;;;;;;9.70;5.95;;;15.30;88.30;;;;;;4886034;29;20056;-72
2022/04/26 15:50:55;;;;;;;8.32;6.13;;;15.20;88.80;;;;;;4890511;29;20028;-71
2022/04/26 15:53:22;;;;;;;8.23;6.43;;;15.10;89.30;;;;;;4885608;29;20040;-71
2022/04/26 15:55:48;;;;;;;;;;;15.10;89.80;;;;;;4892334;29;20663;-71
2022/04/26 15:58:15;;;;;;;9.50;5.68;;;15.10;90.00;;;;;;4894887;29;19915;-71
2022/04/26 16:00:41;;;;;;;11.05;6.57;;;15.10;90.00;;;;;;4883776;29;20083;-71
2022/04/26 16:03:06;;;;;;;8.60;6.20;;;15.20;90.00;;;;;;4887391;29;20060;-71
2022/04/26 16:05:32;;;;;;;8.17;5.73;;;15.30;90.10;;;;;;4890147;29;20036;-71
2022/04/26 16:07:58;;;;;;;8.25;5.97;;;15.40;89.70;;;;;;4886266;29;20257;-71
2022/04/26 16:21:23;;;;;;;12.35;7.68;;;14.70;91.00;;;;;;4888717;29;20031;-71
2022/04/26 16:23:54;;;;;;;10.05;7.13;;;14.60;91.30;;;;;;4888854;29;20905;-71
2022/04/26 16:26:22;;;;;;;9.55;6.80;;;14.60;91.10;;;;;;4889470;29;20111;-71
2022/04/26 16:28:49;;;;;;;8.40;5.82;;;14.60;91.30;;;;;;4892734;29;20032;-71
2022/04/26 16:31:16;;;;;;;11.98;6.30;;;14.70;91.40;;;;;;4895586;29;20024;-71
2022/04/26 16:33:42;;;;;;;12.18;7.18;;;14.70;91.70;;;;;;4884031;29;20051;-71
2022/04/26 16:36:09;;;;;;;10.57;7.23;;;14.70;91.60;;;;;;4892865;29;20020;-71
2022/04/26 16:38:36;;;;;;;11.55;7.18;;;14.80;91.20;;;;;;4894031;29;20025;-72
2022/04/26 16:41:04;;;;;;;9.52;6.53;;;14.80;91.50;;;;;;4888047;29;20047;-71
2022/04/26 16:43:33;;;;;;;9.82;7.40;;;14.90;91.80;;;;;;4892635;29;20063;-71
2022/04/26 16:46:00;;;;;;;13.00;6.25;;;14.90;91.50;;;;;;4891076;29;20032;-71
2022/04/26 16:48:25;;;;;;;9.52;6.25;;;14.90;91.50;;;;;;4888415;29;20071;-71
2022/04/26 16:50:51;;;;;;;9.47;5.97;;;14.90;91.60;;;;;;4892811;29;20137;-71
2022/04/26 16:53:17;;;;;;;9.83;6.00;;;14.90;91.60;;;;;;4890360;29;20340;-71
2022/04/26 16:55:46;;;;;;;10.17;7.00;;;14.80;91.60;;;;;;4890745;29;20429;-71
2022/04/26 16:58:13;;;;;;;7.07;5.40;;;14.80;91.50;;;;;;4891072;29;20336;-71
2022/04/26 17:00:41;;;;;;;;;;;14.70;91.90;;;;;;4894295;29;20032;-71
2022/04/26 17:03:07;;;;;;;9.02;6.00;;;14.70;92.10;;;;;;4904820;29;19911;-71
2022/04/26 17:05:32;;;;;;;10.10;6.43;;;14.70;91.80;;;;;;4889458;29;20036;-71
2022/04/26 17:07:58;;;;;;;8.55;6.00;;;14.70;92.00;;;;;;4892498;29;20044;-71
2022/04/26 17:10:25;;;;;;;9.97;6.87;;;14.70;92.00;;;;;;4889834;29;20040;-71
2022/04/26 17:12:52;;;;;;;;;;;14.60;92.10;;;;;;4915526;29;20267;-71
2022/04/26 17:15:18;;;;;;;11.07;6.15;;;14.50;92.40;;;;;;4898113;29;19933;-71